sensor_id;sensor_type;location;lat;lon;timestamp;P1;durP1;ratioP1;P2;durP2;ratioP2
62401;SDS011;48440;51.224;22.506;2023-01-25T00:00:20;62.05;;;23.33;;
62401;SDS011;48440;51.224;22.506;2023-01-25T00:02:45;68.30;;;23.23;;
62401;SDS011;48440;51.224;22.506;2023-01-25T00:05:11;61.42;;;22.95;;
62401;SDS011;48440;51.224;22.506;2023-01-25T00:07:36;59.70;;;21.77;;
62401;SDS011;48440;51.224;22.506;2023-01-25T00:10:02;55.78;;;21.00;;
62401;SDS011;48440;51.224;22.506;2023-01-25T00:12:27;55.50;;;22.08;;
62401;SDS011;48440;51.224;22.506;2023-01-25T00:14:53;54.97;;;19.80;;
62401;SDS011;48440;51.224;22.506;2023-01-25T00:17:18;59.15;;;21.17;;
62401;SDS011;48440;51.224;22.506;2023-01-25T00:19:43;57.90;;;22.23;;
62401;SDS011;48440;51.224;22.506;2023-01-25T00:22:09;57.15;;;22.35;;
62401;SDS011;48440;51.224;22.506;2023-01-25T00:24:34;58.58;;;22.40;;
62401;SDS011;48440;51.224;22.506;2023-01-25T00:27:00;59.75;;;21.80;;
62401;SDS011;48440;51.224;22.506;2023-01-25T00:29:26;50.08;;;20.30;;
62401;SDS011;48440;51.224;22.506;2023-01-25T00:39:33;49.58;;;19.58;;
62401;SDS011;48440;51.224;22.506;2023-01-25T00:41:58;53.70;;;21.30;;
62401;SDS011;48440;51.224;22.506;2023-01-25T00:44:24;59.13;;;21.38;;
62401;SDS011;48440;51.224;22.506;2023-01-25T00:46:49;59.88;;;23.00;;
62401;SDS011;48440;51.224;22.506;2023-01-25T00:49:19;62.72;;;21.88;;
62401;SDS011;48440;51.224;22.506;2023-01-25T00:51:47;51.15;;;21.40;;
62401;SDS011;48440;51.224;22.506;2023-01-25T00:54:13;47.60;;;18.15;;
62401;SDS011;48440;51.224;22.506;2023-01-25T00:56:38;53.67;;;19.48;;
62401;SDS011;48440;51.224;22.506;2023-01-25T00:59:04;63.88;;;21.77;;
62401;SDS011;48440;51.224;22.506;2023-01-25T01:01:30;63.45;;;22.83;;
62401;SDS011;48440;51.224;22.506;2023-01-25T01:03:55;70.88;;;23.83;;
62401;SDS011;48440;51.224;22.506;2023-01-25T01:06:20;73.97;;;24.23;;
62401;SDS011;48440;51.224;22.506;2023-01-25T01:08:46;63.38;;;23.90;;
62401;SDS011;48440;51.224;22.506;2023-01-25T01:11:12;61.28;;;23.00;;
62401;SDS011;48440;51.224;22.506;2023-01-25T01:13:38;60.53;;;21.58;;
62401;SDS011;48440;51.224;22.506;2023-01-25T01:16:05;57.10;;;21.73;;
62401;SDS011;48440;51.224;22.506;2023-01-25T01:18:39;59.40;;;22.00;;
62401;SDS011;48440;51.224;22.506;2023-01-25T01:21:06;68.85;;;22.70;;
62401;SDS011;48440;51.224;22.506;2023-01-25T01:23:32;56.47;;;21.05;;
62401;SDS011;48440;51.224;22.506;2023-01-25T01:25:59;53.88;;;21.05;;
62401;SDS011;48440;51.224;22.506;2023-01-25T01:28:29;67.05;;;23.27;;
62401;SDS011;48440;51.224;22.506;2023-01-25T01:31:01;65.75;;;23.63;;
62401;SDS011;48440;51.224;22.506;2023-01-25T01:33:30;63.58;;;23.70;;
62401;SDS011;48440;51.224;22.506;2023-01-25T01:35:56;59.30;;;20.75;;
62401;SDS011;48440;51.224;22.506;2023-01-25T01:38:22;63.53;;;21.63;;
62401;SDS011;48440;51.224;22.506;2023-01-25T01:40:48;61.97;;;21.88;;
62401;SDS011;48440;51.224;22.506;2023-01-25T01:43:21;54.50;;;20.40;;
62401;SDS011;48440;51.224;22.506;2023-01-25T01:51:23;51.67;;;19.80;;
62401;SDS011;48440;51.224;22.506;2023-01-25T01:54:07;53.38;;;18.33;;
62401;SDS011;48440;51.224;22.506;2023-01-25T01:59:15;49.40;;;18.70;;
62401;SDS011;48440;51.224;22.506;2023-01-25T02:01:41;44.03;;;16.27;;
62401;SDS011;48440;51.224;22.506;2023-01-25T02:04:08;39.33;;;15.25;;
62401;SDS011;48440;51.224;22.506;2023-01-25T02:06:38;38.10;;;14.38;;
62401;SDS011;48440;51.224;22.506;2023-01-25T02:09:10;38.50;;;13.85;;
62401;SDS011;48440;51.224;22.506;2023-01-25T02:11:36;40.47;;;16.02;;
62401;SDS011;48440;51.224;22.506;2023-01-25T02:14:02;41.55;;;16.58;;
62401;SDS011;48440;51.224;22.506;2023-01-25T02:16:28;41.78;;;18.48;;
62401;SDS011;48440;51.224;22.506;2023-01-25T02:18:54;48.95;;;16.92;;
62401;SDS011;48440;51.224;22.506;2023-01-25T02:21:22;51.90;;;19.95;;
62401;SDS011;48440;51.224;22.506;2023-01-25T02:23:56;50.88;;;18.73;;
62401;SDS011;48440;51.224;22.506;2023-01-25T02:26:42;56.92;;;19.48;;
62401;SDS011;48440;51.224;22.506;2023-01-25T02:29:08;50.80;;;17.77;;
62401;SDS011;48440;51.224;22.506;2023-01-25T02:31:34;51.45;;;20.95;;
62401;SDS011;48440;51.224;22.506;2023-01-25T02:34:00;46.88;;;18.52;;
62401;SDS011;48440;51.224;22.506;2023-01-25T02:36:26;53.10;;;18.52;;
62401;SDS011;48440;51.224;22.506;2023-01-25T02:38:55;57.03;;;20.52;;
62401;SDS011;48440;51.224;22.506;2023-01-25T02:41:31;57.63;;;21.35;;
62401;SDS011;48440;51.224;22.506;2023-01-25T02:44:03;50.28;;;20.60;;
62401;SDS011;48440;51.224;22.506;2023-01-25T02:46:32;57.83;;;20.70;;
62401;SDS011;48440;51.224;22.506;2023-01-25T02:49:00;57.88;;;20.77;;
62401;SDS011;48440;51.224;22.506;2023-01-25T02:51:27;61.88;;;23.17;;
62401;SDS011;48440;51.224;22.506;2023-01-25T02:53:54;59.90;;;20.92;;
62401;SDS011;48440;51.224;22.506;2023-01-25T02:56:20;65.28;;;22.42;;
62401;SDS011;48440;51.224;22.506;2023-01-25T02:58:46;55.78;;;22.27;;
62401;SDS011;48440;51.224;22.506;2023-01-25T03:01:12;64.78;;;23.27;;
62401;SDS011;48440;51.224;22.506;2023-01-25T03:03:38;63.60;;;22.13;;
62401;SDS011;48440;51.224;22.506;2023-01-25T03:06:04;58.35;;;21.27;;
62401;SDS011;48440;51.224;22.506;2023-01-25T03:08:31;55.63;;;21.77;;
62401;SDS011;48440;51.224;22.506;2023-01-25T03:10:57;59.25;;;21.65;;
62401;SDS011;48440;51.224;22.506;2023-01-25T03:13:24;59.08;;;19.48;;
62401;SDS011;48440;51.224;22.506;2023-01-25T03:15:50;53.28;;;20.42;;
62401;SDS011;48440;51.224;22.506;2023-01-25T03:18:16;49.33;;;19.02;;
62401;SDS011;48440;51.224;22.506;2023-01-25T03:20:42;58.08;;;19.90;;
62401;SDS011;48440;51.224;22.506;2023-01-25T03:23:07;51.97;;;18.98;;
62401;SDS011;48440;51.224;22.506;2023-01-25T03:25:33;46.72;;;18.13;;
62401;SDS011;48440;51.224;22.506;2023-01-25T03:27:58;55.25;;;18.65;;
62401;SDS011;48440;51.224;22.506;2023-01-25T03:30:24;48.97;;;17.17;;
62401;SDS011;48440;51.224;22.506;2023-01-25T03:32:49;45.85;;;17.10;;
62401;SDS011;48440;51.224;22.506;2023-01-25T03:35:15;45.67;;;17.77;;
62401;SDS011;48440;51.224;22.506;2023-01-25T03:37:40;38.35;;;14.07;;
62401;SDS011;48440;51.224;22.506;2023-01-25T03:40:06;35.78;;;14.57;;
62401;SDS011;48440;51.224;22.506;2023-01-25T03:42:32;34.50;;;14.20;;
62401;SDS011;48440;51.224;22.506;2023-01-25T03:44:57;39.50;;;15.02;;
62401;SDS011;48440;51.224;22.506;2023-01-25T03:47:23;34.15;;;13.70;;
62401;SDS011;48440;51.224;22.506;2023-01-25T03:49:48;30.75;;;12.88;;
62401;SDS011;48440;51.224;22.506;2023-01-25T03:52:14;27.33;;;11.60;;
62401;SDS011;48440;51.224;22.506;2023-01-25T03:54:39;31.70;;;11.70;;
62401;SDS011;48440;51.224;22.506;2023-01-25T03:57:05;35.05;;;11.38;;
62401;SDS011;48440;51.224;22.506;2023-01-25T03:59:30;29.10;;;11.20;;
62401;SDS011;48440;51.224;22.506;2023-01-25T04:01:55;30.17;;;11.32;;
62401;SDS011;48440;51.224;22.506;2023-01-25T04:04:21;31.05;;;12.98;;
62401;SDS011;48440;51.224;22.506;2023-01-25T04:06:46;30.42;;;12.48;;
62401;SDS011;48440;51.224;22.506;2023-01-25T04:09:11;32.33;;;12.35;;
62401;SDS011;48440;51.224;22.506;2023-01-25T04:11:38;31.20;;;12.65;;
62401;SDS011;48440;51.224;22.506;2023-01-25T04:14:04;35.20;;;13.40;;
62401;SDS011;48440;51.224;22.506;2023-01-25T04:16:29;37.67;;;13.38;;
62401;SDS011;48440;51.224;22.506;2023-01-25T04:18:55;40.53;;;14.40;;
62401;SDS011;48440;51.224;22.506;2023-01-25T04:21:21;36.05;;;14.68;;
62401;SDS011;48440;51.224;22.506;2023-01-25T04:23:46;37.25;;;15.10;;
62401;SDS011;48440;51.224;22.506;2023-01-25T04:26:12;39.40;;;15.80;;
62401;SDS011;48440;51.224;22.506;2023-01-25T04:28:38;42.65;;;15.68;;
62401;SDS011;48440;51.224;22.506;2023-01-25T04:31:04;36.03;;;14.52;;
62401;SDS011;48440;51.224;22.506;2023-01-25T04:33:30;42.35;;;16.40;;
62401;SDS011;48440;51.224;22.506;2023-01-25T04:35:56;40.10;;;16.13;;
62401;SDS011;48440;51.224;22.506;2023-01-25T04:38:21;45.22;;;16.85;;
62401;SDS011;48440;51.224;22.506;2023-01-25T04:40:47;40.28;;;16.73;;
62401;SDS011;48440;51.224;22.506;2023-01-25T04:43:16;39.95;;;15.80;;
62401;SDS011;48440;51.224;22.506;2023-01-25T04:45:43;38.90;;;15.73;;
62401;SDS011;48440;51.224;22.506;2023-01-25T04:48:09;46.53;;;17.15;;
62401;SDS011;48440;51.224;22.506;2023-01-25T04:50:36;42.83;;;16.52;;
62401;SDS011;48440;51.224;22.506;2023-01-25T04:53:03;64.72;;;19.45;;
62401;SDS011;48440;51.224;22.506;2023-01-25T04:55:29;44.78;;;16.80;;
62401;SDS011;48440;51.224;22.506;2023-01-25T04:57:55;50.00;;;17.60;;
62401;SDS011;48440;51.224;22.506;2023-01-25T05:00:20;44.45;;;16.58;;
62401;SDS011;48440;51.224;22.506;2023-01-25T05:02:46;43.20;;;16.77;;
62401;SDS011;48440;51.224;22.506;2023-01-25T05:05:12;40.58;;;17.17;;
62401;SDS011;48440;51.224;22.506;2023-01-25T05:07:38;46.90;;;16.63;;
62401;SDS011;48440;51.224;22.506;2023-01-25T05:10:04;37.67;;;15.15;;
62401;SDS011;48440;51.224;22.506;2023-01-25T05:12:30;45.13;;;16.33;;
62401;SDS011;48440;51.224;22.506;2023-01-25T05:14:55;35.97;;;15.35;;
62401;SDS011;48440;51.224;22.506;2023-01-25T05:17:21;36.83;;;14.05;;
62401;SDS011;48440;51.224;22.506;2023-01-25T05:19:47;37.55;;;15.07;;
62401;SDS011;48440;51.224;22.506;2023-01-25T05:22:13;34.85;;;14.00;;
62401;SDS011;48440;51.224;22.506;2023-01-25T05:24:39;40.03;;;15.77;;
62401;SDS011;48440;51.224;22.506;2023-01-25T05:27:10;37.38;;;14.95;;
62401;SDS011;48440;51.224;22.506;2023-01-25T05:29:41;30.80;;;12.55;;
62401;SDS011;48440;51.224;22.506;2023-01-25T05:32:09;42.45;;;15.18;;
62401;SDS011;48440;51.224;22.506;2023-01-25T05:34:38;38.08;;;14.75;;
62401;SDS011;48440;51.224;22.506;2023-01-25T05:37:04;37.08;;;15.88;;
62401;SDS011;48440;51.224;22.506;2023-01-25T05:39:32;41.38;;;15.50;;
62401;SDS011;48440;51.224;22.506;2023-01-25T05:41:57;37.33;;;14.75;;
62401;SDS011;48440;51.224;22.506;2023-01-25T05:44:23;43.50;;;16.73;;
62401;SDS011;48440;51.224;22.506;2023-01-25T05:46:49;40.78;;;16.70;;
62401;SDS011;48440;51.224;22.506;2023-01-25T05:49:15;43.55;;;18.17;;
62401;SDS011;48440;51.224;22.506;2023-01-25T05:51:41;42.22;;;16.17;;
62401;SDS011;48440;51.224;22.506;2023-01-25T05:54:08;42.42;;;17.60;;
62401;SDS011;48440;51.224;22.506;2023-01-25T05:56:37;45.58;;;16.58;;
62401;SDS011;48440;51.224;22.506;2023-01-25T05:59:02;43.70;;;17.08;;
62401;SDS011;48440;51.224;22.506;2023-01-25T06:01:28;39.17;;;16.70;;
62401;SDS011;48440;51.224;22.506;2023-01-25T06:03:53;44.78;;;16.58;;
62401;SDS011;48440;51.224;22.506;2023-01-25T06:06:19;42.88;;;17.02;;
62401;SDS011;48440;51.224;22.506;2023-01-25T06:08:46;37.13;;;16.13;;
62401;SDS011;48440;51.224;22.506;2023-01-25T06:11:13;44.65;;;17.52;;
62401;SDS011;48440;51.224;22.506;2023-01-25T06:13:43;43.72;;;17.35;;
62401;SDS011;48440;51.224;22.506;2023-01-25T06:16:09;37.83;;;15.07;;
62401;SDS011;48440;51.224;22.506;2023-01-25T06:18:35;36.30;;;15.30;;
62401;SDS011;48440;51.224;22.506;2023-01-25T06:21:01;43.20;;;15.68;;
62401;SDS011;48440;51.224;22.506;2023-01-25T06:23:28;41.47;;;16.70;;
62401;SDS011;48440;51.224;22.506;2023-01-25T06:25:57;40.67;;;18.98;;
62401;SDS011;48440;51.224;22.506;2023-01-25T06:28:30;50.53;;;20.83;;
62401;SDS011;48440;51.224;22.506;2023-01-25T06:31:02;49.42;;;20.15;;
62401;SDS011;48440;51.224;22.506;2023-01-25T06:33:29;50.67;;;18.73;;
62401;SDS011;48440;51.224;22.506;2023-01-25T06:35:58;39.38;;;17.60;;
62401;SDS011;48440;51.224;22.506;2023-01-25T06:38:24;43.10;;;17.80;;
62401;SDS011;48440;51.224;22.506;2023-01-25T06:40:49;40.55;;;17.10;;
62401;SDS011;48440;51.224;22.506;2023-01-25T06:43:15;41.63;;;16.77;;
62401;SDS011;48440;51.224;22.506;2023-01-25T06:45:40;42.80;;;16.60;;
62401;SDS011;48440;51.224;22.506;2023-01-25T06:48:06;45.97;;;18.02;;
62401;SDS011;48440;51.224;22.506;2023-01-25T06:50:31;45.05;;;16.98;;
62401;SDS011;48440;51.224;22.506;2023-01-25T06:52:56;38.63;;;15.35;;
62401;SDS011;48440;51.224;22.506;2023-01-25T06:55:22;35.70;;;15.68;;
62401;SDS011;48440;51.224;22.506;2023-01-25T06:57:48;37.47;;;16.10;;
62401;SDS011;48440;51.224;22.506;2023-01-25T07:00:14;41.22;;;16.73;;
62401;SDS011;48440;51.224;22.506;2023-01-25T07:02:40;36.35;;;15.75;;
62401;SDS011;48440;51.224;22.506;2023-01-25T07:05:07;39.47;;;14.90;;
62401;SDS011;48440;51.224;22.506;2023-01-25T07:07:33;39.75;;;16.23;;
62401;SDS011;48440;51.224;22.506;2023-01-25T07:09:59;34.92;;;16.15;;
62401;SDS011;48440;51.224;22.506;2023-01-25T07:12:27;32.60;;;15.27;;
62401;SDS011;48440;51.224;22.506;2023-01-25T07:14:54;35.40;;;17.63;;
62401;SDS011;48440;51.224;22.506;2023-01-25T07:17:19;35.35;;;15.30;;
62401;SDS011;48440;51.224;22.506;2023-01-25T07:19:45;37.75;;;16.00;;
62401;SDS011;48440;51.224;22.506;2023-01-25T07:22:11;39.13;;;15.93;;
62401;SDS011;48440;51.224;22.506;2023-01-25T07:24:36;34.67;;;15.80;;
62401;SDS011;48440;51.224;22.506;2023-01-25T07:27:02;36.65;;;16.23;;
62401;SDS011;48440;51.224;22.506;2023-01-25T07:29:27;37.15;;;15.00;;
62401;SDS011;48440;51.224;22.506;2023-01-25T07:31:54;35.10;;;14.93;;
62401;SDS011;48440;51.224;22.506;2023-01-25T07:34:20;41.40;;;16.88;;
62401;SDS011;48440;51.224;22.506;2023-01-25T07:36:45;41.35;;;17.77;;
62401;SDS011;48440;51.224;22.506;2023-01-25T07:39:11;43.42;;;17.38;;
62401;SDS011;48440;51.224;22.506;2023-01-25T07:41:40;41.75;;;17.25;;
62401;SDS011;48440;51.224;22.506;2023-01-25T07:44:08;37.65;;;16.30;;
62401;SDS011;48440;51.224;22.506;2023-01-25T07:46:34;38.22;;;17.35;;
62401;SDS011;48440;51.224;22.506;2023-01-25T07:49:02;42.25;;;17.13;;
62401;SDS011;48440;51.224;22.506;2023-01-25T07:51:30;44.67;;;18.33;;
62401;SDS011;48440;51.224;22.506;2023-01-25T07:53:56;44.35;;;19.10;;
62401;SDS011;48440;51.224;22.506;2023-01-25T07:56:29;49.47;;;19.13;;
62401;SDS011;48440;51.224;22.506;2023-01-25T07:58:57;42.08;;;18.05;;
62401;SDS011;48440;51.224;22.506;2023-01-25T08:01:24;48.10;;;21.55;;
62401;SDS011;48440;51.224;22.506;2023-01-25T08:03:51;47.00;;;19.55;;
62401;SDS011;48440;51.224;22.506;2023-01-25T08:06:25;47.67;;;19.67;;
62401;SDS011;48440;51.224;22.506;2023-01-25T08:08:59;43.30;;;19.48;;
62401;SDS011;48440;51.224;22.506;2023-01-25T08:11:28;46.22;;;20.25;;
62401;SDS011;48440;51.224;22.506;2023-01-25T08:13:58;47.75;;;19.88;;
62401;SDS011;48440;51.224;22.506;2023-01-25T08:16:26;46.33;;;19.65;;
62401;SDS011;48440;51.224;22.506;2023-01-25T08:18:53;38.83;;;17.88;;
62401;SDS011;48440;51.224;22.506;2023-01-25T08:21:21;44.30;;;18.95;;
62401;SDS011;48440;51.224;22.506;2023-01-25T08:23:53;41.92;;;19.63;;
62401;SDS011;48440;51.224;22.506;2023-01-25T08:26:22;44.47;;;18.55;;
62401;SDS011;48440;51.224;22.506;2023-01-25T08:28:48;43.22;;;18.75;;
62401;SDS011;48440;51.224;22.506;2023-01-25T08:31:17;44.15;;;19.58;;
62401;SDS011;48440;51.224;22.506;2023-01-25T08:33:45;44.85;;;19.67;;
62401;SDS011;48440;51.224;22.506;2023-01-25T08:36:11;42.78;;;18.70;;
62401;SDS011;48440;51.224;22.506;2023-01-25T08:38:40;46.15;;;18.98;;
62401;SDS011;48440;51.224;22.506;2023-01-25T08:43:33;44.17;;;19.35;;
62401;SDS011;48440;51.224;22.506;2023-01-25T08:45:59;45.92;;;19.67;;
62401;SDS011;48440;51.224;22.506;2023-01-25T08:48:24;42.05;;;19.30;;
62401;SDS011;48440;51.224;22.506;2023-01-25T08:50:50;48.90;;;20.00;;
62401;SDS011;48440;51.224;22.506;2023-01-25T08:53:16;44.20;;;19.02;;
62401;SDS011;48440;51.224;22.506;2023-01-25T08:55:41;43.33;;;18.25;;
62401;SDS011;48440;51.224;22.506;2023-01-25T08:58:13;44.50;;;19.73;;
62401;SDS011;48440;51.224;22.506;2023-01-25T09:00:41;42.25;;;18.70;;
62401;SDS011;48440;51.224;22.506;2023-01-25T09:03:08;49.88;;;20.63;;
62401;SDS011;48440;51.224;22.506;2023-01-25T09:05:35;50.28;;;22.40;;
62401;SDS011;48440;51.224;22.506;2023-01-25T09:08:02;51.38;;;21.55;;
62401;SDS011;48440;51.224;22.506;2023-01-25T09:10:28;50.20;;;21.67;;
62401;SDS011;48440;51.224;22.506;2023-01-25T09:12:54;47.00;;;21.13;;
62401;SDS011;48440;51.224;22.506;2023-01-25T09:15:19;51.45;;;21.63;;
62401;SDS011;48440;51.224;22.506;2023-01-25T09:17:46;49.78;;;21.98;;
62401;SDS011;48440;51.224;22.506;2023-01-25T09:20:15;53.90;;;21.67;;
62401;SDS011;48440;51.224;22.506;2023-01-25T09:22:41;52.60;;;22.75;;
62401;SDS011;48440;51.224;22.506;2023-01-25T09:25:06;50.03;;;22.58;;
62401;SDS011;48440;51.224;22.506;2023-01-25T09:27:32;54.05;;;23.77;;
62401;SDS011;48440;51.224;22.506;2023-01-25T09:29:57;50.53;;;22.30;;
62401;SDS011;48440;51.224;22.506;2023-01-25T09:32:23;57.10;;;23.95;;
62401;SDS011;48440;51.224;22.506;2023-01-25T09:34:48;53.78;;;23.60;;
62401;SDS011;48440;51.224;22.506;2023-01-25T09:37:14;55.15;;;23.10;;
62401;SDS011;48440;51.224;22.506;2023-01-25T09:39:39;56.85;;;25.85;;
62401;SDS011;48440;51.224;22.506;2023-01-25T09:53:18;67.75;;;27.17;;
62401;SDS011;48440;51.224;22.506;2023-01-25T09:56:10;66.43;;;27.42;;
62401;SDS011;48440;51.224;22.506;2023-01-25T09:58:45;69.22;;;27.75;;
62401;SDS011;48440;51.224;22.506;2023-01-25T10:06:43;69.38;;;27.30;;
62401;SDS011;48440;51.224;22.506;2023-01-25T10:11:41;63.15;;;25.35;;
62401;SDS011;48440;51.224;22.506;2023-01-25T10:14:13;65.65;;;26.50;;
62401;SDS011;48440;51.224;22.506;2023-01-25T10:22:33;68.05;;;27.27;;
62401;SDS011;48440;51.224;22.506;2023-01-25T10:25:02;66.80;;;27.08;;
62401;SDS011;48440;51.224;22.506;2023-01-25T10:27:43;73.45;;;28.17;;
62401;SDS011;48440;51.224;22.506;2023-01-25T10:30:20;69.47;;;26.75;;
62401;SDS011;48440;51.224;22.506;2023-01-25T10:32:50;77.53;;;28.75;;
62401;SDS011;48440;51.224;22.506;2023-01-25T10:35:20;78.05;;;28.33;;
62401;SDS011;48440;51.224;22.506;2023-01-25T10:37:49;68.75;;;28.15;;
62401;SDS011;48440;51.224;22.506;2023-01-25T10:40:20;68.57;;;27.77;;
62401;SDS011;48440;51.224;22.506;2023-01-25T10:45:26;64.18;;;26.85;;
62401;SDS011;48440;51.224;22.506;2023-01-25T10:47:54;67.45;;;27.55;;
62401;SDS011;48440;51.224;22.506;2023-01-25T10:55:58;68.78;;;26.17;;
62401;SDS011;48440;51.224;22.506;2023-01-25T10:58:40;64.30;;;25.48;;
62401;SDS011;48440;51.224;22.506;2023-01-25T11:01:29;60.72;;;25.17;;
62401;SDS011;48440;51.224;22.506;2023-01-25T11:03:57;51.63;;;22.90;;
62401;SDS011;48440;51.224;22.506;2023-01-25T11:06:34;48.83;;;20.65;;
62401;SDS011;48440;51.224;22.506;2023-01-25T11:09:47;49.78;;;21.45;;
62401;SDS011;48440;51.224;22.506;2023-01-25T11:11:58;54.25;;;21.58;;
62401;SDS011;48440;51.224;22.506;2023-01-25T11:14:44;50.90;;;21.75;;
62401;SDS011;48440;51.224;22.506;2023-01-25T11:17:29;54.40;;;23.08;;
62401;SDS011;48440;51.224;22.506;2023-01-25T11:22:53;50.30;;;22.10;;
62401;SDS011;48440;51.224;22.506;2023-01-25T11:25:31;53.15;;;22.00;;
62401;SDS011;48440;51.224;22.506;2023-01-25T11:28:40;52.85;;;22.70;;
62401;SDS011;48440;51.224;22.506;2023-01-25T11:30:48;47.05;;;20.05;;
62401;SDS011;48440;51.224;22.506;2023-01-25T11:33:16;57.25;;;23.55;;
62401;SDS011;48440;51.224;22.506;2023-01-25T11:38:37;50.65;;;23.00;;
62401;SDS011;48440;51.224;22.506;2023-01-25T11:44:24;52.67;;;21.83;;
62401;SDS011;48440;51.224;22.506;2023-01-25T11:49:43;48.42;;;21.30;;
62401;SDS011;48440;51.224;22.506;2023-01-25T11:52:28;55.80;;;22.20;;
62401;SDS011;48440;51.224;22.506;2023-01-25T12:06:21;54.53;;;23.30;;
62401;SDS011;48440;51.224;22.506;2023-01-25T12:12:11;53.22;;;22.40;;
62401;SDS011;48440;51.224;22.506;2023-01-25T12:15:01;51.10;;;20.42;;
62401;SDS011;48440;51.224;22.506;2023-01-25T12:23:30;64.32;;;25.33;;
62401;SDS011;48440;51.224;22.506;2023-01-25T12:26:06;58.55;;;23.98;;
62401;SDS011;48440;51.224;22.506;2023-01-25T12:28:49;56.03;;;22.80;;
62401;SDS011;48440;51.224;22.506;2023-01-25T12:34:09;55.00;;;23.85;;
62401;SDS011;48440;51.224;22.506;2023-01-25T12:36:47;66.03;;;25.95;;
62401;SDS011;48440;51.224;22.506;2023-01-25T12:42:00;63.33;;;23.92;;
62401;SDS011;48440;51.224;22.506;2023-01-25T12:47:30;47.83;;;21.85;;
62401;SDS011;48440;51.224;22.506;2023-01-25T12:50:12;52.75;;;22.58;;
62401;SDS011;48440;51.224;22.506;2023-01-25T12:52:44;52.25;;;20.95;;
62401;SDS011;48440;51.224;22.506;2023-01-25T12:55:14;48.00;;;21.40;;
62401;SDS011;48440;51.224;22.506;2023-01-25T13:13:44;49.38;;;21.80;;
62401;SDS011;48440;51.224;22.506;2023-01-25T13:16:24;51.78;;;22.17;;
62401;SDS011;48440;51.224;22.506;2023-01-25T13:18:59;51.70;;;21.40;;
62401;SDS011;48440;51.224;22.506;2023-01-25T13:21:38;52.08;;;22.02;;
62401;SDS011;48440;51.224;22.506;2023-01-25T13:32:13;44.30;;;20.17;;
62401;SDS011;48440;51.224;22.506;2023-01-25T13:34:59;52.33;;;20.80;;
62401;SDS011;48440;51.224;22.506;2023-01-25T13:37:29;45.70;;;20.13;;
62401;SDS011;48440;51.224;22.506;2023-01-25T13:42:30;46.45;;;20.25;;
62401;SDS011;48440;51.224;22.506;2023-01-25T13:44:58;43.03;;;20.10;;
62401;SDS011;48440;51.224;22.506;2023-01-25T13:47:28;47.78;;;19.35;;
62401;SDS011;48440;51.224;22.506;2023-01-25T13:52:58;47.30;;;20.45;;
62401;SDS011;48440;51.224;22.506;2023-01-25T13:55:24;45.05;;;20.80;;
62401;SDS011;48440;51.224;22.506;2023-01-25T13:57:50;52.97;;;22.63;;
62401;SDS011;48440;51.224;22.506;2023-01-25T14:00:16;50.08;;;22.27;;
62401;SDS011;48440;51.224;22.506;2023-01-25T14:02:43;63.83;;;25.92;;
62401;SDS011;48440;51.224;22.506;2023-01-25T14:05:18;55.95;;;24.48;;
62401;SDS011;48440;51.224;22.506;2023-01-25T14:07:46;57.70;;;23.63;;
62401;SDS011;48440;51.224;22.506;2023-01-25T14:10:15;54.80;;;22.35;;
62401;SDS011;48440;51.224;22.506;2023-01-25T14:12:47;51.65;;;21.80;;
62401;SDS011;48440;51.224;22.506;2023-01-25T14:17:41;47.65;;;20.02;;
62401;SDS011;48440;51.224;22.506;2023-01-25T14:20:25;49.45;;;20.95;;
62401;SDS011;48440;51.224;22.506;2023-01-25T14:22:51;50.38;;;22.15;;
62401;SDS011;48440;51.224;22.506;2023-01-25T14:25:17;52.55;;;21.55;;
62401;SDS011;48440;51.224;22.506;2023-01-25T14:27:48;45.67;;;20.30;;
62401;SDS011;48440;51.224;22.506;2023-01-25T14:30:27;44.83;;;19.60;;
62401;SDS011;48440;51.224;22.506;2023-01-25T14:33:16;42.10;;;19.15;;
62401;SDS011;48440;51.224;22.506;2023-01-25T14:35:42;44.92;;;20.48;;
62401;SDS011;48440;51.224;22.506;2023-01-25T14:40:45;47.15;;;20.80;;
62401;SDS011;48440;51.224;22.506;2023-01-25T14:43:12;46.85;;;20.00;;
62401;SDS011;48440;51.224;22.506;2023-01-25T14:45:39;51.35;;;22.35;;
62401;SDS011;48440;51.224;22.506;2023-01-25T14:48:04;57.22;;;23.35;;
62401;SDS011;48440;51.224;22.506;2023-01-25T14:50:50;59.83;;;24.08;;
62401;SDS011;48440;51.224;22.506;2023-01-25T14:53:18;59.25;;;24.55;;
62401;SDS011;48440;51.224;22.506;2023-01-25T14:55:48;58.22;;;24.40;;
62401;SDS011;48440;51.224;22.506;2023-01-25T14:58:18;55.47;;;23.73;;
62401;SDS011;48440;51.224;22.506;2023-01-25T15:00:51;46.00;;;21.80;;
62401;SDS011;48440;51.224;22.506;2023-01-25T15:03:18;44.42;;;19.58;;
62401;SDS011;48440;51.224;22.506;2023-01-25T15:05:43;44.35;;;20.83;;
62401;SDS011;48440;51.224;22.506;2023-01-25T15:10:57;44.17;;;20.42;;
62401;SDS011;48440;51.224;22.506;2023-01-25T15:13:43;49.03;;;21.08;;
62401;SDS011;48440;51.224;22.506;2023-01-25T15:16:09;47.53;;;20.70;;
62401;SDS011;48440;51.224;22.506;2023-01-25T15:18:52;47.38;;;21.33;;
62401;SDS011;48440;51.224;22.506;2023-01-25T15:21:32;52.45;;;22.13;;
62401;SDS011;48440;51.224;22.506;2023-01-25T15:23:58;61.60;;;23.67;;
62401;SDS011;48440;51.224;22.506;2023-01-25T15:26:29;53.22;;;22.30;;
62401;SDS011;48440;51.224;22.506;2023-01-25T15:29:00;55.25;;;24.58;;
62401;SDS011;48440;51.224;22.506;2023-01-25T15:31:28;55.67;;;23.23;;
62401;SDS011;48440;51.224;22.506;2023-01-25T15:33:56;66.68;;;25.50;;
62401;SDS011;48440;51.224;22.506;2023-01-25T15:36:22;60.28;;;24.73;;
62401;SDS011;48440;51.224;22.506;2023-01-25T15:38:48;57.97;;;25.35;;
62401;SDS011;48440;51.224;22.506;2023-01-25T15:41:14;54.22;;;23.67;;
62401;SDS011;48440;51.224;22.506;2023-01-25T15:43:42;57.20;;;25.05;;
62401;SDS011;48440;51.224;22.506;2023-01-25T15:46:24;56.58;;;23.60;;
62401;SDS011;48440;51.224;22.506;2023-01-25T15:48:52;60.77;;;25.30;;
62401;SDS011;48440;51.224;22.506;2023-01-25T15:51:18;57.85;;;24.70;;
62401;SDS011;48440;51.224;22.506;2023-01-25T15:53:44;61.08;;;25.45;;
62401;SDS011;48440;51.224;22.506;2023-01-25T15:56:15;58.33;;;24.77;;
62401;SDS011;48440;51.224;22.506;2023-01-25T15:58:43;57.42;;;26.13;;
62401;SDS011;48440;51.224;22.506;2023-01-25T16:01:11;59.85;;;24.83;;
62401;SDS011;48440;51.224;22.506;2023-01-25T16:03:37;61.25;;;24.60;;
62401;SDS011;48440;51.224;22.506;2023-01-25T16:08:55;61.50;;;24.83;;
62401;SDS011;48440;51.224;22.506;2023-01-25T16:11:22;58.75;;;24.42;;
62401;SDS011;48440;51.224;22.506;2023-01-25T16:13:48;59.65;;;25.15;;
62401;SDS011;48440;51.224;22.506;2023-01-25T16:16:20;58.58;;;23.77;;
62401;SDS011;48440;51.224;22.506;2023-01-25T16:21:15;62.50;;;23.73;;
62401;SDS011;48440;51.224;22.506;2023-01-25T16:23:41;59.75;;;23.38;;
62401;SDS011;48440;51.224;22.506;2023-01-25T16:26:14;58.75;;;24.10;;
62401;SDS011;48440;51.224;22.506;2023-01-25T16:28:44;59.90;;;25.35;;
62401;SDS011;48440;51.224;22.506;2023-01-25T16:31:11;60.58;;;24.48;;